Time;durP1;ratioP1;P1;durP2;ratioP2;P2;SDS_P1;SDS_P2;PMS_P1;PMS_P2;Temp;Humidity;BMP_temperature;BMP_pressure;BME280_temperature;BME280_humidity;BME280_pressure;Samples;Min_cycle;Max_cycle;Signal;HPM_P1;HPM_P2
2021/11/28 00:02:12;;;;;;;18.58;14.90;;;;;;;;;;4978026;28;20026;-93
2021/11/28 00:04:37;;;;;;;17.35;13.10;;;;;;;;;;4977154;28;20069;-93
2021/11/28 00:07:07;;;;;;;16.65;13.57;;;;;;;;;;4977759;28;20038;-93
2021/11/28 00:14:44;;;;;;;17.40;13.63;;;;;;;;;;5001715;28;20026;-94
2021/11/28 00:17:10;;;;;;;16.98;13.07;;;;;;;;;;5009087;28;20006;-93
2021/11/28 00:19:36;;;;;;;20.38;13.80;;;;;;;;;;4980395;28;20057;-93
2021/11/28 00:22:01;;;;;;;20.77;15.43;;;;;;;;;;4982668;28;20398;-93
2021/11/28 00:24:26;;;;;;;22.65;14.23;;;;;;;;;;4983302;28;20055;-93
2021/11/28 00:26:52;;;;;;;17.67;12.57;;;;;;;;;;4980599;28;20040;-93
2021/11/28 00:29:17;;;;;;;23.67;15.13;;;;;;;;;;4982230;28;20022;-93
2021/11/28 00:31:43;;;;;;;16.65;12.52;;;;;;;;;;4981280;28;20022;-93
2021/11/28 00:34:08;;;;;;;16.50;12.25;;;;;;;;;;4979770;28;20046;-93
2021/11/28 00:36:33;;;;;;;19.52;15.05;;;;;;;;;;4979386;28;20022;-93
2021/11/28 00:38:59;;;;;;;21.63;14.85;;;;;;;;;;4979402;28;20030;-93
2021/11/28 00:41:24;;;;;;;22.30;15.43;;;;;;;;;;4978298;28;20030;-93
2021/11/28 00:43:49;;;;;;;19.52;13.85;;;;;;;;;;4979622;28;20058;-93
2021/11/28 00:46:15;;;;;;;21.20;13.48;;;;;;;;;;4994917;28;20053;-93
2021/11/28 00:48:43;;;;;;;22.70;15.95;;;;;;;;;;4986637;28;20049;-93
2021/11/28 00:53:43;;;;;;;21.88;15.45;;;;;;;;;;4993801;28;20390;-93
2021/11/28 00:56:09;;;;;;;25.13;15.00;;;;;;;;;;4975580;28;20044;-93
2021/11/28 00:58:34;;;;;;;19.63;13.75;;;;;;;;;;4993281;28;20030;-92
2021/11/28 01:00:59;;;;;;;23.50;15.73;;;;;;;;;;4976194;28;20046;-93
2021/11/28 01:03:25;;;;;;;22.30;15.18;;;;;;;;;;4993414;28;20018;-93
2021/11/28 01:05:50;;;;;;;20.05;14.40;;;;;;;;;;4993887;28;20084;-93
2021/11/28 01:08:16;;;;;;;20.23;14.80;;;;;;;;;;4977948;28;20026;-93
2021/11/28 01:10:42;;;;;;;21.05;16.63;;;;;;;;;;4975840;28;20092;-92
2021/11/28 01:13:07;;;;;;;21.67;15.25;;;;;;;;;;4993155;28;20110;-93
2021/11/28 01:15:32;;;;;;;20.33;14.95;;;;;;;;;;4976100;28;20028;-93
2021/11/28 01:17:58;;;;;;;23.73;17.00;;;;;;;;;;4993795;28;20061;-93
2021/11/28 01:20:23;;;;;;;24.50;16.20;;;;;;;;;;4975784;28;20022;-93
2021/11/28 01:22:49;;;;;;;28.05;15.15;;;;;;;;;;4989688;28;20030;-93
2021/11/28 01:25:15;;;;;;;23.98;16.90;;;;;;;;;;4984360;28;20473;-93
2021/11/28 01:27:41;;;;;;;24.15;16.65;;;;;;;;;;4977926;28;20038;-93
2021/11/28 01:30:07;;;;;;;23.55;16.67;;;;;;;;;;4975369;28;20030;-93
2021/11/28 01:32:32;;;;;;;28.05;18.08;;;;;;;;;;4979423;28;20025;-94
2021/11/28 01:34:58;;;;;;;24.55;17.35;;;;;;;;;;4983089;28;20022;-93
2021/11/28 01:37:24;;;;;;;35.03;19.90;;;;;;;;;;4985095;28;20034;-94
2021/11/28 01:39:50;;;;;;;25.65;17.33;;;;;;;;;;4999622;28;20057;-94
2021/11/28 01:42:15;;;;;;;21.70;15.68;;;;;;;;;;4982837;28;20113;-93
2021/11/28 01:44:40;;;;;;;30.85;17.40;;;;;;;;;;5004363;28;20034;-94
2021/11/28 01:47:05;;;;;;;24.38;16.85;;;;;;;;;;4982133;28;20037;-94
2021/11/28 01:49:31;;;;;;;23.10;16.48;;;;;;;;;;4985100;28;20045;-94
2021/11/28 01:51:56;;;;;;;22.13;16.48;;;;;;;;;;4985580;28;20034;-93
2021/11/28 01:54:22;;;;;;;21.17;15.57;;;;;;;;;;4980615;28;20015;-93
2021/11/28 01:56:49;;;;;;;25.45;17.05;;;;;;;;;;4983628;28;20026;-94
2021/11/28 01:59:14;;;;;;;23.67;16.00;;;;;;;;;;4983878;28;20027;-93
2021/11/28 02:01:40;;;;;;;22.20;17.20;;;;;;;;;;4977387;28;20117;-93
2021/11/28 02:04:07;;;;;;;23.85;16.75;;;;;;;;;;4975652;28;20026;-93
2021/11/28 02:06:33;;;;;;;21.77;15.60;;;;;;;;;;4977132;28;20038;-93
2021/11/28 02:08:59;;;;;;;23.23;15.60;;;;;;;;;;4976025;28;20459;-93
2021/11/28 02:11:24;;;;;;;18.67;14.40;;;;;;;;;;4975335;28;20041;-93
2021/11/28 02:13:50;;;;;;;20.17;14.20;;;;;;;;;;4976654;28;20467;-93
2021/11/28 02:16:16;;;;;;;17.95;13.95;;;;;;;;;;4998600;28;20054;-92
2021/11/28 02:18:41;;;;;;;18.17;13.07;;;;;;;;;;4977116;28;20018;-93
2021/11/28 02:21:08;;;;;;;18.45;14.60;;;;;;;;;;4976243;28;20072;-93
2021/11/28 02:23:33;;;;;;;20.67;14.88;;;;;;;;;;4976002;28;20037;-93
2021/11/28 02:26:00;;;;;;;21.95;16.67;;;;;;;;;;4974989;28;20054;-93
2021/11/28 02:28:25;;;;;;;21.70;16.67;;;;;;;;;;4975139;28;20038;-93
2021/11/28 02:30:51;;;;;;;27.30;19.17;;;;;;;;;;4975311;28;20021;-93
2021/11/28 02:33:16;;;;;;;25.20;18.20;;;;;;;;;;4975187;28;20481;-92
2021/11/28 02:35:41;;;;;;;24.80;16.90;;;;;;;;;;4993022;28;20022;-93
2021/11/28 02:38:07;;;;;;;27.58;18.35;;;;;;;;;;4975808;28;20026;-93
2021/11/28 02:40:34;;;;;;;23.25;16.88;;;;;;;;;;4974586;28;20031;-93
2021/11/28 02:42:59;;;;;;;23.70;16.65;;;;;;;;;;4976949;28;20112;-93
2021/11/28 02:45:26;;;;;;;20.77;16.00;;;;;;;;;;4998531;28;20049;-93
2021/11/28 02:47:53;;;;;;;28.55;19.40;;;;;;;;;;4975820;28;20110;-93
2021/11/28 02:50:19;;;;;;;18.38;14.48;;;;;;;;;;4993275;28;20030;-93
2021/11/28 02:52:45;;;;;;;21.33;15.52;;;;;;;;;;4974416;28;20114;-93
2021/11/28 02:55:11;;;;;;;20.38;13.55;;;;;;;;;;4976260;28;20030;-93
2021/11/28 02:57:36;;;;;;;17.85;14.02;;;;;;;;;;4978885;28;20038;-93
2021/11/28 03:00:03;;;;;;;18.20;13.60;;;;;;;;;;4977306;28;20054;-93
2021/11/28 03:02:29;;;;;;;17.40;14.02;;;;;;;;;;4977371;28;20034;-93
2021/11/28 03:04:54;;;;;;;23.05;15.60;;;;;;;;;;4981891;28;20167;-93
2021/11/28 03:07:20;;;;;;;18.95;14.68;;;;;;;;;;4981265;28;20038;-93
2021/11/28 03:09:45;;;;;;;17.90;14.23;;;;;;;;;;4997012;28;20675;-93
2021/11/28 03:12:11;;;;;;;20.58;13.82;;;;;;;;;;4979981;28;20026;-92
2021/11/28 03:14:36;;;;;;;14.43;12.30;;;;;;;;;;4979352;28;20072;-93
2021/11/28 03:17:02;;;;;;;15.65;12.10;;;;;;;;;;4981084;28;20489;-93
2021/11/28 03:19:27;;;;;;;16.40;12.75;;;;;;;;;;4984909;28;20192;-92
2021/11/28 03:21:53;;;;;;;16.75;12.98;;;;;;;;;;4978428;28;20136;-93
2021/11/28 03:24:18;;;;;;;16.77;13.60;;;;;;;;;;4987321;28;20049;-93
2021/11/28 03:26:44;;;;;;;16.45;13.50;;;;;;;;;;4977320;28;20075;-93
2021/11/28 03:29:14;;;;;;;17.75;13.70;;;;;;;;;;4979163;28;20018;-93
2021/11/28 03:31:40;;;;;;;25.58;14.55;;;;;;;;;;4995577;28;20022;-93
2021/11/28 03:34:07;;;;;;;16.58;12.35;;;;;;;;;;4977957;28;20490;-93
2021/11/28 03:36:33;;;;;;;22.35;15.15;;;;;;;;;;4978101;28;20121;-92
2021/11/28 03:38:58;;;;;;;22.33;14.30;;;;;;;;;;4978483;28;20026;-93
2021/11/28 03:41:25;;;;;;;19.67;12.85;;;;;;;;;;4996047;28;20093;-94
2021/11/28 03:43:52;;;;;;;13.65;11.68;;;;;;;;;;4979440;28;20018;-93
2021/11/28 03:46:18;;;;;;;15.48;11.90;;;;;;;;;;4978337;28;20042;-93
2021/11/28 03:48:43;;;;;;;16.67;12.43;;;;;;;;;;4977840;28;20466;-93
2021/11/28 03:51:09;;;;;;;17.45;13.18;;;;;;;;;;4976898;28;20029;-92
2021/11/28 03:53:34;;;;;;;16.30;13.40;;;;;;;;;;4987953;28;20038;-93
2021/11/28 03:56:03;;;;;;;17.90;13.13;;;;;;;;;;4980019;28;20180;-93
2021/11/28 03:58:29;;;;;;;16.38;13.25;;;;;;;;;;4978710;28;20015;-93
2021/11/28 04:00:54;;;;;;;19.08;13.05;;;;;;;;;;4977509;28;20410;-93
2021/11/28 04:03:20;;;;;;;19.02;13.98;;;;;;;;;;4980347;28;20690;-93
2021/11/28 04:05:45;;;;;;;19.00;14.13;;;;;;;;;;4983474;28;20034;-93
2021/11/28 04:08:10;;;;;;;21.08;13.13;;;;;;;;;;4980724;28;20574;-93
2021/11/28 04:10:36;;;;;;;21.52;13.32;;;;;;;;;;4978835;28;20470;-93
2021/11/28 04:13:01;;;;;;;19.92;14.45;;;;;;;;;;4977805;28;20120;-93
2021/11/28 04:15:26;;;;;;;16.77;13.15;;;;;;;;;;4978763;28;20121;-93
2021/11/28 04:17:52;;;;;;;15.68;12.18;;;;;;;;;;4978300;28;20037;-93
2021/11/28 04:20:17;;;;;;;17.02;11.73;;;;;;;;;;4984891;28;20031;-93
2021/11/28 04:22:43;;;;;;;13.60;11.82;;;;;;;;;;5011589;28;20042;-93
2021/11/28 04:25:10;;;;;;;16.83;12.13;;;;;;;;;;4981620;28;20054;-94
2021/11/28 04:27:35;;;;;;;18.55;13.65;;;;;;;;;;4977886;28;20034;-93
2021/11/28 04:30:01;;;;;;;17.63;12.93;;;;;;;;;;4976669;28;20507;-93
2021/11/28 04:32:27;;;;;;;20.95;14.18;;;;;;;;;;4978984;28;20026;-93
2021/11/28 04:34:52;;;;;;;17.02;13.32;;;;;;;;;;4977234;28;20032;-93
2021/11/28 04:37:17;;;;;;;19.92;14.88;;;;;;;;;;4977454;28;20026;-93
2021/11/28 04:39:43;;;;;;;18.80;14.98;;;;;;;;;;4979336;28;20022;-93
2021/11/28 04:42:08;;;;;;;19.02;14.52;;;;;;;;;;4976718;28;20505;-93
2021/11/28 04:44:34;;;;;;;19.35;13.70;;;;;;;;;;4976161;28;20062;-93
2021/11/28 04:46:59;;;;;;;18.15;14.75;;;;;;;;;;4975992;28;20089;-93
2021/11/28 04:49:25;;;;;;;21.50;14.82;;;;;;;;;;4976513;28;20076;-93
2021/11/28 04:51:50;;;;;;;17.73;13.73;;;;;;;;;;4977997;28;20474;-93
2021/11/28 04:54:17;;;;;;;20.30;14.60;;;;;;;;;;4989304;28;20014;-93
2021/11/28 04:56:42;;;;;;;20.98;15.20;;;;;;;;;;4982784;28;20053;-93
2021/11/28 04:59:07;;;;;;;16.23;13.05;;;;;;;;;;4976305;28;20513;-93
2021/11/28 05:01:33;;;;;;;22.50;15.60;;;;;;;;;;4993694;28;20134;-93
2021/11/28 05:03:58;;;;;;;23.35;16.38;;;;;;;;;;4975247;28;20788;-93
2021/11/28 05:06:23;;;;;;;23.05;16.48;;;;;;;;;;4976355;28;20072;-93
2021/11/28 05:08:49;;;;;;;22.42;15.23;;;;;;;;;;4976407;28;20026;-93
2021/11/28 05:11:14;;;;;;;21.20;16.40;;;;;;;;;;4977310;28;20026;-93
2021/11/28 05:13:39;;;;;;;23.38;15.50;;;;;;;;;;4975800;28;20026;-93
2021/11/28 05:16:05;;;;;;;21.48;15.95;;;;;;;;;;4976060;28;20026;-92
2021/11/28 05:18:30;;;;;;;21.30;14.70;;;;;;;;;;4975585;28;20018;-92
2021/11/28 05:20:55;;;;;;;19.05;14.95;;;;;;;;;;4977696;28;20022;-93
2021/11/28 05:23:21;;;;;;;27.38;17.45;;;;;;;;;;4993899;28;20022;-93
2021/11/28 05:25:46;;;;;;;23.73;16.00;;;;;;;;;;4975434;28;20081;-93
2021/11/28 05:28:12;;;;;;;21.17;16.50;;;;;;;;;;4975046;28;20026;-92
2021/11/28 05:30:38;;;;;;;25.90;16.73;;;;;;;;;;4974399;28;20026;-92
2021/11/28 05:33:03;;;;;;;24.95;17.55;;;;;;;;;;4993576;28;20045;-93
2021/11/28 05:35:28;;;;;;;22.45;15.80;;;;;;;;;;4975232;28;20026;-93
2021/11/28 05:37:54;;;;;;;20.58;15.07;;;;;;;;;;4975381;28;20034;-93
2021/11/28 05:40:19;;;;;;;21.42;15.80;;;;;;;;;;4975829;28;20073;-92
2021/11/28 05:42:48;;;;;;;27.45;17.17;;;;;;;;;;4975238;28;20085;-92
2021/11/28 05:45:14;;;;;;;18.42;14.07;;;;;;;;;;4992589;28;20072;-92
2021/11/28 05:47:39;;;;;;;24.10;15.75;;;;;;;;;;4975028;28;20042;-93
2021/11/28 05:50:06;;;;;;;23.30;15.80;;;;;;;;;;4975434;28;20132;-93
2021/11/28 05:52:31;;;;;;;21.90;15.77;;;;;;;;;;4991937;28;20030;-92
2021/11/28 05:54:57;;;;;;;25.95;16.90;;;;;;;;;;5006947;28;20045;-93
2021/11/28 05:57:22;;;;;;;20.98;14.75;;;;;;;;;;4975152;28;20041;-93
2021/11/28 05:59:47;;;;;;;23.80;16.05;;;;;;;;;;4975588;28;20395;-93
2021/11/28 06:02:13;;;;;;;18.63;14.80;;;;;;;;;;4975687;28;20034;-93
2021/11/28 06:04:38;;;;;;;18.95;14.32;;;;;;;;;;4975456;28;20026;-92
2021/11/28 06:07:04;;;;;;;20.55;14.32;;;;;;;;;;4975019;28;20042;-93
2021/11/28 06:09:29;;;;;;;23.77;15.27;;;;;;;;;;4975029;28;20117;-93
2021/11/28 06:11:54;;;;;;;17.85;13.98;;;;;;;;;;4974545;28;20026;-92
2021/11/28 06:14:20;;;;;;;30.20;17.83;;;;;;;;;;4992195;28;20029;-93
2021/11/28 06:16:45;;;;;;;22.30;14.95;;;;;;;;;;4975428;28;20749;-93
2021/11/28 06:19:10;;;;;;;25.65;16.10;;;;;;;;;;4974232;28;20038;-93
2021/11/28 06:21:36;;;;;;;21.88;15.32;;;;;;;;;;4974782;28;20022;-93
2021/11/28 06:24:01;;;;;;;28.95;16.70;;;;;;;;;;4990659;28;20030;-93
2021/11/28 06:26:26;;;;;;;20.48;15.27;;;;;;;;;;4974899;28;20069;-93
2021/11/28 06:28:52;;;;;;;25.13;15.63;;;;;;;;;;4974266;28;20479;-92
2021/11/28 06:31:17;;;;;;;22.48;14.88;;;;;;;;;;4974019;28;20109;-92
2021/11/28 06:33:42;;;;;;;21.60;14.73;;;;;;;;;;4991294;28;20032;-92
2021/11/28 06:36:08;;;;;;;23.77;15.48;;;;;;;;;;4974253;28;20066;-93
2021/11/28 06:38:34;;;;;;;20.67;14.48;;;;;;;;;;4974986;28;20381;-93
2021/11/28 06:41:00;;;;;;;19.83;14.50;;;;;;;;;;4976990;28;20037;-92
2021/11/28 06:43:25;;;;;;;20.20;14.15;;;;;;;;;;4995262;28;20026;-92
2021/11/28 06:45:50;;;;;;;22.90;13.75;;;;;;;;;;4995392;28;20030;-92
2021/11/28 06:48:16;;;;;;;24.15;14.30;;;;;;;;;;4978748;28;20117;-93
2021/11/28 06:50:41;;;;;;;23.27;15.18;;;;;;;;;;4977822;28;20097;-92
2021/11/28 06:53:06;;;;;;;34.33;17.80;;;;;;;;;;4978616;28;20053;-93
2021/11/28 06:55:32;;;;;;;31.02;16.35;;;;;;;;;;5010262;28;20613;-93
2021/11/28 06:57:58;;;;;;;23.73;15.18;;;;;;;;;;4996513;28;20023;-93
2021/11/28 07:00:23;;;;;;;26.58;15.80;;;;;;;;;;4977723;28;20026;-93
2021/11/28 07:02:48;;;;;;;23.38;15.32;;;;;;;;;;4978585;28;20109;-92
2021/11/28 07:05:14;;;;;;;32.88;16.73;;;;;;;;;;4977760;28;20364;-93
2021/11/28 07:07:39;;;;;;;24.50;15.05;;;;;;;;;;4977397;28;20034;-93
2021/11/28 07:10:04;;;;;;;25.02;14.38;;;;;;;;;;4977394;28;20018;-92
2021/11/28 07:12:30;;;;;;;25.77;15.18;;;;;;;;;;4977953;28;20022;-93
2021/11/28 07:14:55;;;;;;;28.50;15.35;;;;;;;;;;4977481;28;20061;-92
2021/11/28 07:17:20;;;;;;;32.67;17.88;;;;;;;;;;4978254;28;20080;-93
2021/11/28 07:19:46;;;;;;;27.63;14.90;;;;;;;;;;4978407;28;20113;-93
2021/11/28 07:22:11;;;;;;;37.08;15.93;;;;;;;;;;4994849;28;20022;-93
2021/11/28 07:24:36;;;;;;;28.10;14.60;;;;;;;;;;4995006;28;20129;-92
2021/11/28 07:27:02;;;;;;;35.08;15.00;;;;;;;;;;5012213;28;20061;-93
2021/11/28 07:29:27;;;;;;;58.03;17.45;;;;;;;;;;4977015;28;20048;-92
2021/11/28 07:31:52;;;;;;;32.70;15.70;;;;;;;;;;4977052;28;20030;-93
2021/11/28 07:34:17;;;;;;;25.40;15.48;;;;;;;;;;4994915;28;20034;-93
2021/11/28 07:36:43;;;;;;;62.22;16.77;;;;;;;;;;4976373;28;20478;-93
2021/11/28 07:39:08;;;;;;;57.92;16.50;;;;;;;;;;4977581;28;20474;-93
2021/11/28 07:41:34;;;;;;;55.15;13.88;;;;;;;;;;4994567;28;20517;-93
2021/11/28 07:44:00;;;;;;;58.95;15.20;;;;;;;;;;4995163;28;20018;-93
2021/11/28 07:46:25;;;;;;;39.25;14.05;;;;;;;;;;4978648;28;20022;-92
2021/11/28 07:48:51;;;;;;;26.75;13.18;;;;;;;;;;4976598;28;20038;-93
2021/11/28 07:51:17;;;;;;;45.45;17.00;;;;;;;;;;4977435;28;20037;-93
2021/11/28 10:05:59;;;;;;;33.92;14.75;;;;;;;;;;6031826;22;20050;-87
2021/11/28 17:59:27;;;;;;;37.00;22.67;;;;;;;;;;4777374;22;20335;-92
2021/11/28 18:01:53;;;;;;;29.60;20.98;;;;;;;;;;4993167;28;20042;-92
2021/11/28 18:04:19;;;;;;;36.58;22.23;;;;;;;;;;4991446;28;20049;-92
2021/11/28 18:06:44;;;;;;;32.33;22.35;;;;;;;;;;4974783;28;20026;-93
2021/11/28 18:09:09;;;;;;;33.65;22.05;;;;;;;;;;4974869;28;20632;-93
2021/11/28 18:11:35;;;;;;;27.70;18.35;;;;;;;;;;4974347;28;20033;-93
2021/11/28 18:14:00;;;;;;;41.15;28.25;;;;;;;;;;4990737;28;20026;-92
2021/11/28 18:16:26;;;;;;;32.95;23.52;;;;;;;;;;4990029;28;20479;-91
2021/11/28 18:18:51;;;;;;;35.05;23.55;;;;;;;;;;4973696;28;20027;-92
2021/11/28 18:21:17;;;;;;;31.05;21.48;;;;;;;;;;4973766;28;20034;-91
2021/11/28 18:23:42;;;;;;;28.08;20.63;;;;;;;;;;4973548;28;20032;-92
2021/11/28 18:26:08;;;;;;;28.13;19.38;;;;;;;;;;4973643;28;20027;-92
2021/11/28 18:28:34;;;;;;;27.40;20.83;;;;;;;;;;4973559;28;20809;-92
2021/11/28 18:30:59;;;;;;;33.50;21.70;;;;;;;;;;4966195;28;20113;-92
2021/11/28 18:33:25;;;;;;;25.50;18.23;;;;;;;;;;4991139;28;20023;-93
2021/11/28 18:35:50;;;;;;;25.95;18.10;;;;;;;;;;4974473;28;20030;-91
2021/11/28 18:38:15;;;;;;;27.08;18.83;;;;;;;;;;4994943;28;20027;-91
2021/11/28 18:40:42;;;;;;;29.65;19.02;;;;;;;;;;4979676;28;20018;-91
2021/11/28 18:43:07;;;;;;;28.35;17.40;;;;;;;;;;4994765;28;20080;-91
2021/11/28 18:45:33;;;;;;;25.55;17.42;;;;;;;;;;4994789;28;20033;-91
2021/11/28 18:47:58;;;;;;;29.67;19.38;;;;;;;;;;4993122;28;20038;-91
2021/11/28 18:50:24;;;;;;;30.08;18.15;;;;;;;;;;4977173;28;20049;-91
2021/11/28 18:52:49;;;;;;;27.33;17.73;;;;;;;;;;4977074;28;20052;-91
2021/11/28 18:55:15;;;;;;;25.05;17.45;;;;;;;;;;4977257;28;20610;-91
2021/11/28 18:57:41;;;;;;;29.20;17.73;;;;;;;;;;4977120;28;20014;-91
2021/11/28 19:00:08;;;;;;;30.70;21.40;;;;;;;;;;4992839;28;20494;-90
2021/11/28 19:02:34;;;;;;;31.58;17.77;;;;;;;;;;4977239;28;20030;-91
2021/11/28 19:04:59;;;;;;;23.73;15.48;;;;;;;;;;4985297;28;20073;-91
2021/11/28 19:07:24;;;;;;;25.50;17.48;;;;;;;;;;4976710;28;20483;-91
2021/11/28 19:09:49;;;;;;;25.85;16.80;;;;;;;;;;4992991;28;20026;-90
2021/11/28 19:12:15;;;;;;;26.45;16.38;;;;;;;;;;4976773;28;20413;-91
2021/11/28 19:14:40;;;;;;;28.20;17.95;;;;;;;;;;4995051;28;20025;-90
2021/11/28 19:17:05;;;;;;;29.10;17.05;;;;;;;;;;4993570;28;20033;-90
2021/11/28 19:19:31;;;;;;;24.60;16.83;;;;;;;;;;4977356;28;20363;-90
2021/11/28 19:21:56;;;;;;;28.15;16.58;;;;;;;;;;4984844;28;20073;-91
2021/11/28 19:24:21;;;;;;;38.80;22.27;;;;;;;;;;4978506;28;20026;-92
2021/11/28 19:26:46;;;;;;;31.48;20.10;;;;;;;;;;4976508;28;20069;-91
2021/11/28 19:29:12;;;;;;;27.55;17.10;;;;;;;;;;4992882;28;20034;-91
2021/11/28 19:31:38;;;;;;;23.75;14.75;;;;;;;;;;4976748;28;20073;-92
2021/11/28 19:34:03;;;;;;;20.67;14.63;;;;;;;;;;4993947;28;20125;-91
2021/11/28 19:36:28;;;;;;;22.15;16.10;;;;;;;;;;4995566;28;20022;-92
2021/11/28 19:38:54;;;;;;;26.45;16.05;;;;;;;;;;4993364;28;20105;-91
2021/11/28 19:41:20;;;;;;;26.05;16.88;;;;;;;;;;4990206;28;20521;-91
2021/11/28 19:43:46;;;;;;;27.40;17.77;;;;;;;;;;4991877;28;20111;-92
2021/11/28 19:46:11;;;;;;;27.25;17.35;;;;;;;;;;4976261;28;20113;-90
2021/11/28 19:48:36;;;;;;;25.30;16.52;;;;;;;;;;5007732;28;20493;-90
2021/11/28 19:51:01;;;;;;;29.00;18.05;;;;;;;;;;4994305;28;20030;-90
2021/11/28 19:53:27;;;;;;;27.65;16.92;;;;;;;;;;4992227;28;20042;-90
2021/11/28 19:55:53;;;;;;;22.17;15.77;;;;;;;;;;4976209;28;20479;-89
2021/11/28 19:58:18;;;;;;;24.50;16.45;;;;;;;;;;4993270;28;20062;-90
2021/11/28 20:00:44;;;;;;;23.58;17.08;;;;;;;;;;4975872;28;20615;-90
2021/11/28 20:03:09;;;;;;;24.48;16.77;;;;;;;;;;4993282;28;20076;-91
2021/11/28 20:05:34;;;;;;;23.67;16.52;;;;;;;;;;4993454;28;20467;-90
2021/11/28 20:08:00;;;;;;;21.10;15.45;;;;;;;;;;4993353;28;20035;-91
2021/11/28 20:10:25;;;;;;;23.08;15.93;;;;;;;;;;4993722;28;20060;-90
2021/11/28 20:12:51;;;;;;;21.45;15.45;;;;;;;;;;4991873;28;20014;-91
2021/11/28 20:15:17;;;;;;;20.70;15.57;;;;;;;;;;4993200;28;20059;-90
2021/11/28 20:17:42;;;;;;;23.92;15.43;;;;;;;;;;4975817;28;20486;-90
2021/11/28 20:20:08;;;;;;;22.02;16.48;;;;;;;;;;4993233;28;20818;-90
2021/11/28 20:22:34;;;;;;;24.55;16.70;;;;;;;;;;4993350;28;20022;-90
2021/11/28 20:24:59;;;;;;;22.13;14.82;;;;;;;;;;4975440;28;20045;-90
2021/11/28 20:27:24;;;;;;;23.10;16.25;;;;;;;;;;4975401;28;20382;-90
2021/11/28 20:29:49;;;;;;;21.80;15.18;;;;;;;;;;4992902;28;20030;-90
2021/11/28 20:32:15;;;;;;;22.58;16.10;;;;;;;;;;4993271;28;20030;-91
2021/11/28 20:34:41;;;;;;;21.85;15.73;;;;;;;;;;4976702;28;20026;-93
2021/11/28 20:37:07;;;;;;;22.48;16.38;;;;;;;;;;4976402;28;20133;-92
2021/11/28 20:39:32;;;;;;;23.40;16.70;;;;;;;;;;4975889;28;20105;-92
2021/11/28 20:41:57;;;;;;;28.23;17.48;;;;;;;;;;4993589;28;20049;-92
2021/11/28 20:44:23;;;;;;;22.27;16.05;;;;;;;;;;4993785;28;20061;-89
2021/11/28 20:46:51;;;;;;;23.17;16.50;;;;;;;;;;4994821;28;20042;-90
2021/11/28 20:49:16;;;;;;;23.88;17.63;;;;;;;;;;4992890;28;20037;-90
2021/11/28 20:51:42;;;;;;;22.45;16.58;;;;;;;;;;4974559;28;20030;-91
2021/11/28 20:54:08;;;;;;;26.38;16.75;;;;;;;;;;4992353;28;20034;-91
2021/11/28 20:56:34;;;;;;;24.73;17.77;;;;;;;;;;4975207;28;20060;-91
2021/11/28 20:59:00;;;;;;;25.23;17.63;;;;;;;;;;4975175;28;20019;-91
2021/11/28 21:01:25;;;;;;;25.13;16.80;;;;;;;;;;4975009;28;20145;-91
2021/11/28 21:03:51;;;;;;;26.67;18.98;;;;;;;;;;4993218;28;20030;-91
2021/11/28 21:06:16;;;;;;;23.77;16.83;;;;;;;;;;4974828;28;20033;-91
2021/11/28 21:08:42;;;;;;;24.25;17.45;;;;;;;;;;4975157;28;20038;-90
2021/11/28 21:11:09;;;;;;;26.85;18.08;;;;;;;;;;4992789;28;20041;-91
2021/11/28 21:13:36;;;;;;;28.38;19.83;;;;;;;;;;4975176;28;20030;-91
2021/11/28 21:16:04;;;;;;;25.50;18.25;;;;;;;;;;4975540;28;20129;-90
2021/11/28 21:18:30;;;;;;;22.02;16.45;;;;;;;;;;4974763;28;20498;-91
2021/11/28 21:20:56;;;;;;;24.77;17.10;;;;;;;;;;4975074;28;20115;-90
2021/11/28 21:23:22;;;;;;;24.80;16.35;;;;;;;;;;4991095;28;20018;-91
2021/11/28 21:25:48;;;;;;;22.55;15.80;;;;;;;;;;4974883;28;20366;-91
2021/11/28 21:28:14;;;;;;;22.48;16.17;;;;;;;;;;4992581;28;20022;-91
2021/11/28 21:30:40;;;;;;;23.70;16.42;;;;;;;;;;4975093;28;20093;-91
2021/11/28 21:33:06;;;;;;;24.35;17.23;;;;;;;;;;4975064;28;20394;-91
2021/11/28 21:35:31;;;;;;;22.48;16.42;;;;;;;;;;4992383;28;20025;-91
2021/11/28 21:37:58;;;;;;;21.33;16.40;;;;;;;;;;4992056;28;20090;-91
2021/11/28 21:40:23;;;;;;;24.10;16.55;;;;;;;;;;4992709;28;20026;-91
2021/11/28 21:42:49;;;;;;;20.27;14.88;;;;;;;;;;4974582;28;20022;-91
2021/11/28 21:45:14;;;;;;;22.45;16.60;;;;;;;;;;4992121;28;20076;-91
2021/11/28 21:47:40;;;;;;;23.02;16.92;;;;;;;;;;4991792;28;20565;-90
2021/11/28 21:50:06;;;;;;;21.98;16.00;;;;;;;;;;4992251;28;20030;-90
2021/11/28 21:52:31;;;;;;;24.42;17.00;;;;;;;;;;4974286;28;20026;-90
2021/11/28 21:54:56;;;;;;;20.75;15.52;;;;;;;;;;4974184;28;20030;-90
2021/11/28 21:57:22;;;;;;;22.20;15.73;;;;;;;;;;4974285;28;20117;-90
2021/11/28 21:59:47;;;;;;;22.08;15.82;;;;;;;;;;4974144;28;20042;-90
2021/11/28 22:02:12;;;;;;;24.50;17.30;;;;;;;;;;4974372;28;20026;-90
2021/11/28 22:04:38;;;;;;;24.15;17.23;;;;;;;;;;4974023;28;20470;-90
2021/11/28 22:07:03;;;;;;;26.02;17.70;;;;;;;;;;4974319;28;20466;-90
2021/11/28 22:09:28;;;;;;;31.50;18.88;;;;;;;;;;4974402;28;20030;-90
2021/11/28 22:11:53;;;;;;;26.67;18.58;;;;;;;;;;4992324;28;20050;-90
2021/11/28 22:14:19;;;;;;;28.10;19.60;;;;;;;;;;4976835;28;20018;-91
2021/11/28 22:16:44;;;;;;;30.60;19.75;;;;;;;;;;4997037;28;20014;-91
2021/11/28 22:19:09;;;;;;;29.65;20.75;;;;;;;;;;5015823;28;20002;-91
2021/11/28 22:21:35;;;;;;;30.95;21.83;;;;;;;;;;4981248;28;20032;-90
2021/11/28 22:24:00;;;;;;;28.17;20.00;;;;;;;;;;4990068;28;20033;-90
2021/11/28 22:26:25;;;;;;;28.63;20.73;;;;;;;;;;4990505;28;20445;-90
2021/11/28 22:28:51;;;;;;;38.38;19.75;;;;;;;;;;4991377;28;20101;-90
2021/11/28 22:31:16;;;;;;;31.35;20.98;;;;;;;;;;4974153;28;20030;-91
2021/11/28 22:33:42;;;;;;;36.05;20.75;;;;;;;;;;4973783;28;20407;-91
2021/11/28 22:36:07;;;;;;;29.17;19.77;;;;;;;;;;4991475;28;20057;-91
2021/11/28 22:38:32;;;;;;;27.25;19.40;;;;;;;;;;4973974;28;20084;-90
2021/11/28 22:40:57;;;;;;;34.28;22.02;;;;;;;;;;4991715;28;20026;-90
2021/11/28 22:43:25;;;;;;;27.83;19.05;;;;;;;;;;4973955;28;20026;-90
2021/11/28 22:45:51;;;;;;;33.67;20.38;;;;;;;;;;4973980;28;20065;-90
2021/11/28 22:48:16;;;;;;;27.25;19.50;;;;;;;;;;4991008;28;20062;-91
2021/11/28 22:50:41;;;;;;;29.83;20.08;;;;;;;;;;4991549;28;20022;-91
2021/11/28 22:53:07;;;;;;;29.20;18.23;;;;;;;;;;4973599;28;20105;-91
2021/11/28 22:55:32;;;;;;;27.55;19.25;;;;;;;;;;4973670;28;20053;-90
2021/11/28 22:57:58;;;;;;;33.72;20.17;;;;;;;;;;4973708;28;20497;-91
2021/11/28 23:00:26;;;;;;;30.50;19.00;;;;;;;;;;4973691;28;20065;-92
2021/11/28 23:02:52;;;;;;;33.83;19.13;;;;;;;;;;4990815;28;20022;-91
2021/11/28 23:05:18;;;;;;;32.10;18.80;;;;;;;;;;4972953;28;20702;-91
2021/11/28 23:07:43;;;;;;;32.85;19.50;;;;;;;;;;4990604;28;20070;-91
2021/11/28 23:10:08;;;;;;;33.22;20.42;;;;;;;;;;4973114;28;20489;-91
2021/11/28 23:12:34;;;;;;;31.05;19.73;;;;;;;;;;4990852;28;20068;-91
2021/11/28 23:14:59;;;;;;;27.20;19.15;;;;;;;;;;5010694;28;20469;-91
2021/11/28 23:17:24;;;;;;;26.27;18.27;;;;;;;;;;5010330;28;20026;-91
2021/11/28 23:19:50;;;;;;;32.35;20.58;;;;;;;;;;5009947;28;20030;-91
2021/11/28 23:22:15;;;;;;;28.40;20.23;;;;;;;;;;5010271;28;20037;-91
2021/11/28 23:24:40;;;;;;;28.45;20.13;;;;;;;;;;4995304;28;20845;-91
2021/11/28 23:27:09;;;;;;;33.28;21.55;;;;;;;;;;5013930;28;20030;-91
2021/11/28 23:29:34;;;;;;;26.88;18.92;;;;;;;;;;4997210;28;20029;-91
2021/11/28 23:31:59;;;;;;;34.53;22.25;;;;;;;;;;5014369;28;20021;-91
2021/11/28 23:34:25;;;;;;;26.90;18.45;;;;;;;;;;4996462;28;20032;-91
2021/11/28 23:36:50;;;;;;;32.08;20.90;;;;;;;;;;4996596;28;20029;-91
2021/11/28 23:39:15;;;;;;;30.23;19.77;;;;;;;;;;4996334;28;20112;-91
2021/11/28 23:41:41;;;;;;;27.75;18.95;;;;;;;;;;4995991;28;20128;-90
2021/11/28 23:44:06;;;;;;;31.05;20.50;;;;;;;;;;5013758;28;20401;-90
2021/11/28 23:46:31;;;;;;;31.73;20.73;;;;;;;;;;4995800;28;20430;-90
2021/11/28 23:48:56;;;;;;;28.50;19.95;;;;;;;;;;4997619;28;20057;-90
2021/11/28 23:51:22;;;;;;;35.47;21.15;;;;;;;;;;4998248;28;20025;-90
2021/11/28 23:53:48;;;;;;;27.58;18.95;;;;;;;;;;4995963;28;20076;-90
2021/11/28 23:56:13;;;;;;;33.83;21.70;;;;;;;;;;5013576;28;20030;-90
2021/11/28 23:58:39;;;;;;;27.65;19.90;;;;;;;;;;4995800;28;20549;-90
